Time;durP1;ratioP1;P1;durP2;ratioP2;P2;SDS_P1;SDS_P2;PMS_P1;PMS_P2;Temp;Humidity;BMP_temperature;BMP_pressure;BME280_temperature;BME280_humidity;BME280_pressure;Samples;Min_cycle;Max_cycle;Signal;HPM_P1;HPM_P2
2021/06/21 00:00:33;;;;;;;;;;;;;;;30.57;42.40;100248.47;4980244;28;96832;-81
2021/06/21 00:02:59;;;;;;;;;;;;;;;30.17;43.34;100258.09;4984668;28;96924;-81
2021/06/21 00:05:26;;;;;;;;;;;;;;;30.43;43.17;100252.94;4991186;28;96882;-81
2021/06/21 00:07:53;;;;;;;;;;;;;;;30.23;43.33;100244.53;4993220;28;97969;-80
2021/06/21 00:10:20;;;;;;;;;;;;;;;30.07;44.08;100245.63;4993487;28;101824;-82
2021/06/21 00:12:47;;;;;;;;;;;;;;;29.61;45.56;100228.69;4993130;28;96857;-81
2021/06/21 00:15:15;;;;;;;;;;;;;;;29.70;45.35;100222.13;4990497;28;96972;-81
2021/06/21 00:17:41;;;;;;;;;;;;;;;29.74;45.67;100214.41;4979833;28;98931;-81
2021/06/21 00:20:08;;;;;;;;;;;;;;;29.77;45.66;100219.47;4977932;28;97692;-81
2021/06/21 00:22:34;;;;;;;;;;;;;;;29.80;45.59;100202.72;4990286;28;97400;-81
2021/06/21 00:25:03;;;;;;;;;;;;;;;29.32;46.76;100194.16;4982593;28;97348;-81
2021/06/21 00:27:29;;;;;;;;;;;;;;;29.52;46.59;100199.06;4981586;28;99274;-81
2021/06/21 00:29:55;;;;;;;;;;;;;;;29.55;46.10;100185.03;4984360;28;98133;-81
2021/06/21 00:32:24;;;;;;;;;;;;;;;29.46;46.43;100176.16;4987373;28;96980;-81
2021/06/21 00:34:51;;;;;;;;;;;;;;;29.65;45.79;100172.00;4981716;28;96977;-79
2021/06/21 00:37:18;;;;;;;;;;;;;;;29.52;46.41;100178.13;4976370;28;97568;-81
2021/06/21 00:39:45;;;;;;;;;;;;;;;29.51;46.11;100176.44;4974706;28;98120;-81
2021/06/21 00:42:12;;;;;;;;;;;;;;;28.84;47.85;100173.78;4975880;28;97513;-81
2021/06/21 00:44:39;;;;;;;;;;;;;;;28.81;47.96;100181.47;4981619;28;97060;-81
2021/06/21 00:47:05;;;;;;;;;;;;;;;28.78;48.02;100179.97;4991411;28;99236;-82
2021/06/21 00:49:31;;;;;;;;;;;;;;;29.51;46.06;100186.47;4978085;28;99106;-81
2021/06/21 00:51:58;;;;;;;;;;;;;;;29.46;45.89;100181.59;4984134;28;97062;-81
2021/06/21 00:54:24;;;;;;;;;;;;;;;28.96;47.34;100184.19;4995574;28;97155;-80
2021/06/21 00:56:51;;;;;;;;;;;;;;;28.97;47.50;100177.72;4991442;28;99562;-80
2021/06/21 00:59:19;;;;;;;;;;;;;;;29.51;45.93;100173.72;4984018;28;98985;-81
2021/06/21 01:01:45;;;;;;;;;;;;;;;29.21;46.46;100174.75;4995381;28;96728;-80
2021/06/21 01:04:11;;;;;;;;;;;;;;;28.77;47.40;100182.88;4993105;28;96559;-83
2021/06/21 01:06:38;;;;;;;;;;;;;;;28.25;48.53;100180.06;5008214;28;99427;-80
2021/06/21 01:09:05;;;;;;;;;;;;;;;28.80;47.28;100186.06;4998672;28;98013;-80
2021/06/21 01:11:37;;;;;;;;;;;;;;;28.30;48.47;100188.50;4993127;28;97343;-81
2021/06/21 01:14:15;;;;;;;;;;;;;;;27.91;49.59;100183.16;5005096;28;97718;-80
2021/06/21 01:16:48;;;;;;;;;;;;;;;28.02;49.20;100178.19;4987799;28;98296;-80
2021/06/21 01:19:18;;;;;;;;;;;;;;;28.12;49.17;100184.22;4993649;28;97708;-80
2021/06/21 01:22:02;;;;;;;;;;;;;;;28.49;47.99;100182.56;4997776;28;96792;-80
2021/06/21 01:25:00;;;;;;;;;;;;;;;28.49;47.90;100185.28;4992808;28;96953;-81
2021/06/21 01:27:33;;;;;;;;;;;;;;;28.54;47.78;100183.75;4984777;28;99710;-80
2021/06/21 01:30:04;;;;;;;;;;;;;;;28.84;46.71;100179.22;4982974;28;100809;-80
2021/06/21 01:32:44;;;;;;;;;;;;;;;28.79;46.75;100180.81;4980689;28;97431;-81
2021/06/21 01:35:11;;;;;;;;;;;;;;;29.44;45.24;100191.81;4983415;28;97224;-80
2021/06/21 01:37:38;;;;;;;;;;;;;;;29.12;45.44;100189.47;4979720;28;98935;-80
2021/06/21 01:40:05;;;;;;;;;;;;;;;28.43;47.16;100186.03;4978009;28;99004;-80
2021/06/21 01:42:32;;;;;;;;;;;;;;;28.07;48.39;100185.78;4976299;28;97282;-80
2021/06/21 01:45:01;;;;;;;;;;;;;;;27.65;49.61;100180.78;4982505;28;98181;-80
2021/06/21 01:47:28;;;;;;;;;;;;;;;28.02;48.48;100172.75;4984806;28;98959;-80
2021/06/21 01:49:57;;;;;;;;;;;;;;;28.60;46.85;100178.59;4976875;28;97842;-80
2021/06/21 01:52:24;;;;;;;;;;;;;;;28.99;45.73;100176.53;4991706;28;96872;-80
2021/06/21 01:54:54;;;;;;;;;;;;;;;28.23;47.60;100180.25;5000986;28;96971;-80
2021/06/21 01:57:23;;;;;;;;;;;;;;;27.87;48.63;100190.00;4986727;28;99029;-80
2021/06/21 01:59:49;;;;;;;;;;;;;;;28.63;46.79;100187.22;4984784;28;99753;-79
2021/06/21 02:02:16;;;;;;;;;;;;;;;28.65;46.76;100189.75;4983024;28;97808;-80
2021/06/21 02:04:43;;;;;;;;;;;;;;;28.66;46.56;100188.72;4981980;28;96961;-81
2021/06/21 02:07:11;;;;;;;;;;;;;;;28.48;47.11;100203.50;4985181;28;99474;-80
2021/06/21 02:09:38;;;;;;;;;;;;;;;28.70;46.65;100211.78;4976385;28;98849;-79
2021/06/21 02:12:06;;;;;;;;;;;;;;;28.45;47.35;100213.88;4986536;28;96860;-80
2021/06/21 02:14:32;;;;;;;;;;;;;;;28.55;47.10;100228.88;4994357;28;96982;-79
2021/06/21 02:16:59;;;;;;;;;;;;;;;28.82;46.59;100232.09;4992688;28;101189;-79
2021/06/21 02:19:27;;;;;;;;;;;;;;;27.91;49.15;100229.31;4987618;28;99271;-79
2021/06/21 02:21:53;;;;;;;;;;;;;;;28.57;47.67;100231.44;4988059;28;96858;-80
2021/06/21 02:24:22;;;;;;;;;;;;;;;28.59;47.80;100229.38;4989863;28;96881;-81
2021/06/21 02:26:48;;;;;;;;;;;;;;;28.48;48.61;100225.25;4993458;28;99313;-79
2021/06/21 02:29:18;;;;;;;;;;;;;;;28.59;49.23;100232.09;4992712;28;102095;-79
2021/06/21 02:31:45;;;;;;;;;;;;;;;28.75;48.64;100248.28;4990329;28;97186;-80
2021/06/21 02:34:11;;;;;;;;;;;;;;;28.86;48.56;100261.47;4981090;28;96852;-81
2021/06/21 02:36:38;;;;;;;;;;;;;;;28.92;48.15;100290.63;4987322;28;99526;-80
2021/06/21 02:39:04;;;;;;;;;;;;;;;29.05;47.69;100300.91;4985799;28;98884;-80
2021/06/21 02:41:32;;;;;;;;;;;;;;;27.57;52.21;100289.38;4992464;28;97718;-80
2021/06/21 02:43:58;;;;;;;;;;;;;;;27.58;54.37;100266.63;4995219;28;96853;-78
2021/06/21 02:46:24;;;;;;;;;;;;;;;28.11;52.27;100268.59;4983928;28;98949;-79
2021/06/21 02:48:51;;;;;;;;;;;;;;;28.45;51.73;100352.47;4982268;28;98105;-80
2021/06/21 02:51:20;;;;;;;;;;;;;;;28.26;52.06;100451.56;4981993;28;96813;-78
2021/06/21 02:53:50;;;;;;;;;;;;;;;28.24;51.87;100441.88;4991684;28;96916;-79
2021/06/21 02:56:19;;;;;;;;;;;;;;;28.11;52.45;100443.25;4985738;28;98850;-80
2021/06/21 02:58:51;;;;;;;;;;;;;;;28.37;51.83;100432.16;4993015;28;100886;-80
2021/06/21 03:01:19;;;;;;;;;;;;;;;28.59;51.02;100408.78;4981019;28;96983;-79
2021/06/21 03:03:47;;;;;;;;;;;;;;;28.65;51.39;100380.88;4989070;28;96783;-80
2021/06/21 03:06:15;;;;;;;;;;;;;;;28.51;50.94;100385.22;4983370;28;98014;-79
2021/06/21 03:08:42;;;;;;;;;;;;;;;28.70;50.62;100381.19;4988163;28;98831;-79
2021/06/21 03:11:09;;;;;;;;;;;;;;;28.67;50.65;100373.41;4996191;28;96790;-79
2021/06/21 03:13:36;;;;;;;;;;;;;;;28.38;50.67;100362.34;4987413;28;97633;-79
2021/06/21 03:16:05;;;;;;;;;;;;;;;28.83;50.23;100350.69;4984276;28;99330;-80
2021/06/21 03:18:31;;;;;;;;;;;;;;;28.53;50.04;100330.69;4989154;28;98779;-80
2021/06/21 03:20:59;;;;;;;;;;;;;;;28.71;49.94;100331.22;4993537;28;98741;-80
2021/06/21 03:23:27;;;;;;;;;;;;;;;27.98;51.16;100330.78;4987509;28;96911;-79
2021/06/21 03:25:54;;;;;;;;;;;;;;;28.36;50.79;100337.22;4993731;28;98795;-79
2021/06/21 03:28:21;;;;;;;;;;;;;;;28.62;49.78;100323.31;4991203;28;97776;-79
2021/06/21 03:30:49;;;;;;;;;;;;;;;28.49;50.10;100313.88;4983962;28;98245;-80
2021/06/21 03:33:16;;;;;;;;;;;;;;;28.06;50.53;100315.28;4982171;28;96785;-80
2021/06/21 03:35:43;;;;;;;;;;;;;;;28.23;50.55;100301.66;4997370;28;97773;-79
2021/06/21 03:38:10;;;;;;;;;;;;;;;28.17;50.44;100299.66;5011118;28;97781;-80
2021/06/21 03:40:37;;;;;;;;;;;;;;;28.16;50.48;100289.84;5012240;28;96030;-80
2021/06/21 03:43:03;;;;;;;;;;;;;;;28.38;50.18;100289.00;5006687;28;96630;-80
2021/06/21 03:45:30;;;;;;;;;;;;;;;28.34;49.67;100280.38;4985283;28;98074;-79
2021/06/21 03:47:56;;;;;;;;;;;;;;;28.20;50.07;100277.56;4991286;28;99747;-80
2021/06/21 03:50:24;;;;;;;;;;;;;;;28.43;49.43;100272.97;5003240;28;96691;-80
2021/06/21 03:52:50;;;;;;;;;;;;;;;28.36;49.74;100272.00;4991413;28;97999;-79
2021/06/21 03:55:16;;;;;;;;;;;;;;;28.07;50.48;100253.69;4997437;28;101792;-79
2021/06/21 03:57:44;;;;;;;;;;;;;;;27.84;51.25;100241.91;4984729;28;97817;-80
2021/06/21 04:00:12;;;;;;;;;;;;;;;27.84;51.65;100233.78;4979798;28;97101;-80
2021/06/21 04:02:38;;;;;;;;;;;;;;;27.63;52.23;100232.53;4980903;28;96903;-80
2021/06/21 04:05:06;;;;;;;;;;;;;;;27.97;51.72;100218.59;4992965;28;97876;-80
2021/06/21 04:07:33;;;;;;;;;;;;;;;26.84;54.36;100213.56;4982376;28;98940;-80
2021/06/21 04:10:00;;;;;;;;;;;;;;;27.21;53.04;100205.69;4985293;28;99441;-80
2021/06/21 04:12:26;;;;;;;;;;;;;;;27.32;53.63;100212.59;4977694;28;97356;-80
2021/06/21 04:14:53;;;;;;;;;;;;;;;27.59;52.52;100208.63;4987664;28;97918;-79
2021/06/21 04:17:19;;;;;;;;;;;;;;;27.71;52.24;100188.19;4999300;28;97559;-80
2021/06/21 04:19:46;;;;;;;;;;;;;;;27.53;52.54;100182.19;4993133;28;97073;-80
2021/06/21 04:22:12;;;;;;;;;;;;;;;28.01;51.47;100165.63;4980488;28;96837;-80
2021/06/21 04:24:40;;;;;;;;;;;;;;;27.71;52.01;100163.78;4989367;28;100004;-80
2021/06/21 04:27:07;;;;;;;;;;;;;;;27.12;53.39;100152.50;4982473;28;101409;-81
2021/06/21 04:29:33;;;;;;;;;;;;;;;27.55;51.95;100148.44;4976898;28;96901;-79
2021/06/21 04:32:00;;;;;;;;;;;;;;;28.22;50.64;100145.16;4983718;28;96829;-80
2021/06/21 04:34:26;;;;;;;;;;;;;;;27.89;50.61;100137.22;4974625;28;97880;-81
2021/06/21 04:36:52;;;;;;;;;;;;;;;27.95;50.68;100128.34;4984832;28;98199;-80
2021/06/21 04:39:18;;;;;;;;;;;;;;;28.03;50.42;100120.09;4974614;28;97240;-79
2021/06/21 04:41:46;;;;;;;;;;;;;;;28.34;49.50;100127.38;4981112;28;97157;-80
2021/06/21 04:44:12;;;;;;;;;;;;;;;28.63;48.53;100129.28;4982675;28;98280;-80
2021/06/21 04:46:39;;;;;;;;;;;;;;;28.38;48.94;100139.56;4987110;28;101234;-80
2021/06/21 04:49:11;;;;;;;;;;;;;;;28.56;48.97;100145.47;4983859;28;97561;-80
2021/06/21 04:51:37;;;;;;;;;;;;;;;27.52;51.45;100139.81;4986250;28;96922;-81
2021/06/21 04:54:05;;;;;;;;;;;;;;;27.12;52.39;100128.09;4990989;28;98994;-82
2021/06/21 04:56:34;;;;;;;;;;;;;;;27.21;52.15;100124.34;4990802;28;101019;-81
2021/06/21 04:59:01;;;;;;;;;;;;;;;27.46;51.08;100127.75;4981959;28;96885;-82
2021/06/21 05:01:28;;;;;;;;;;;;;;;27.75;50.33;100122.53;4983040;28;97096;-82
2021/06/21 05:03:54;;;;;;;;;;;;;;;28.17;49.28;100107.63;4976085;28;98680;-80
2021/06/21 05:06:20;;;;;;;;;;;;;;;27.80;49.94;100097.56;4986534;28;99177;-82
2021/06/21 05:08:47;;;;;;;;;;;;;;;27.81;50.26;100080.25;4975659;28;97834;-81
2021/06/21 05:11:13;;;;;;;;;;;;;;;27.51;50.95;100078.38;4987772;28;96815;-82
2021/06/21 05:13:40;;;;;;;;;;;;;;;28.07;49.27;100078.00;4989682;28;99478;-80
2021/06/21 05:16:08;;;;;;;;;;;;;;;27.92;49.65;100066.25;4981932;28;98880;-82
2021/06/21 05:18:35;;;;;;;;;;;;;;;27.79;50.24;100065.16;4986149;28;97287;-82
2021/06/21 05:21:01;;;;;;;;;;;;;;;28.19;48.82;100069.44;4976861;28;98321;-82
2021/06/21 05:23:27;;;;;;;;;;;;;;;28.29;48.57;100078.19;4982718;28;99065;-81
2021/06/21 05:25:54;;;;;;;;;;;;;;;27.95;49.18;100065.88;4975136;28;101996;-81
2021/06/21 05:28:20;;;;;;;;;;;;;;;28.55;47.79;100090.28;4990626;28;97782;-81
2021/06/21 05:30:46;;;;;;;;;;;;;;;28.25;48.30;100096.72;4994711;28;97016;-81
2021/06/21 05:33:14;;;;;;;;;;;;;;;28.43;47.82;100099.91;4978912;28;98236;-81
2021/06/21 05:35:41;;;;;;;;;;;;;;;28.85;46.96;100109.38;4974333;28;99515;-80
2021/06/21 05:38:07;;;;;;;;;;;;;;;29.02;46.32;100129.06;4985684;28;96880;-81
2021/06/21 05:40:33;;;;;;;;;;;;;;;29.31;45.60;100145.38;4980701;28;97035;-80
2021/06/21 05:43:00;;;;;;;;;;;;;;;29.17;45.76;100144.34;4974314;28;101217;-81
2021/06/21 05:45:26;;;;;;;;;;;;;;;29.16;45.76;100137.22;4974005;28;98811;-80
2021/06/21 05:47:53;;;;;;;;;;;;;;;27.83;49.40;100140.63;4978728;28;98903;-80
2021/06/21 05:50:21;;;;;;;;;;;;;;;28.17;48.52;100137.50;4982554;28;97785;-80
2021/06/21 05:52:49;;;;;;;;;;;;;;;28.54;48.10;100133.97;4975759;28;98969;-80
2021/06/21 05:55:18;;;;;;;;;;;;;;;29.68;45.15;100134.31;4986350;28;99285;-80
2021/06/21 05:57:44;;;;;;;;;;;;;;;30.29;43.17;100137.47;4983270;28;96823;-79
2021/06/21 06:00:11;;;;;;;;;;;;;;;30.07;43.99;100160.31;4979411;28;97247;-80
2021/06/21 06:02:38;;;;;;;;;;;;;;;30.49;42.76;100171.25;4981250;28;100558;-80
2021/06/21 06:05:04;;;;;;;;;;;;;;;30.24;43.16;100180.84;4979218;28;99117;-79
2021/06/21 06:07:33;;;;;;;;;;;;;;;30.24;43.35;100172.66;4972398;28;97241;-79
2021/06/21 06:09:59;;;;;;;;;;;;;;;30.17;43.14;100166.31;4979707;28;99218;-81
2021/06/21 06:12:25;;;;;;;;;;;;;;;30.26;42.82;100176.00;4979085;28;97943;-80
2021/06/21 06:14:52;;;;;;;;;;;;;;;29.76;44.15;100181.53;4989446;28;98824;-82
2021/06/21 06:17:19;;;;;;;;;;;;;;;29.76;43.99;100186.97;4968754;28;96843;-80
2021/06/21 06:19:45;;;;;;;;;;;;;;;29.92;43.96;100194.97;4990476;28;96908;-80
2021/06/21 06:22:12;;;;;;;;;;;;;;;29.88;44.00;100189.00;4999873;28;101470;-82
2021/06/21 06:24:40;;;;;;;;;;;;;;;28.63;47.53;100179.06;5001666;28;98277;-81
2021/06/21 06:27:06;;;;;;;;;;;;;;;28.67;47.76;100180.41;4994275;28;96824;-82
2021/06/21 06:29:33;;;;;;;;;;;;;;;30.03;44.40;100186.28;4990962;28;97011;-82
2021/06/21 06:32:00;;;;;;;;;;;;;;;30.22;43.28;100198.41;5000631;28;98920;-81
2021/06/21 06:34:27;;;;;;;;;;;;;;;30.44;42.79;100200.94;4995506;28;97514;-81
2021/06/21 06:36:54;;;;;;;;;;;;;;;30.88;42.17;100191.66;4989188;28;97059;-81
2021/06/21 06:39:25;;;;;;;;;;;;;;;30.61;42.66;100190.63;4987747;28;96855;-82
2021/06/21 06:41:53;;;;;;;;;;;;;;;30.83;42.24;100199.63;4987679;28;99316;-79
2021/06/21 06:44:21;;;;;;;;;;;;;;;31.38;40.73;100200.59;4992547;28;98080;-81
2021/06/21 06:46:49;;;;;;;;;;;;;;;32.15;39.00;100197.59;4996104;28;97620;-79
2021/06/21 06:49:16;;;;;;;;;;;;;;;32.10;38.96;100211.03;4996645;28;97306;-81
2021/06/21 06:51:47;;;;;;;;;;;;;;;32.74;37.95;100209.47;4993650;28;100451;-84
2021/06/21 06:54:22;;;;;;;;;;;;;;;32.35;38.62;100212.16;4990760;28;100421;-81
2021/06/21 06:56:58;;;;;;;;;;;;;;;31.93;38.97;100207.81;4994922;28;97022;-80
2021/06/21 06:59:27;;;;;;;;;;;;;;;31.87;39.55;100192.25;4992897;28;97707;-80
2021/06/21 07:01:53;;;;;;;;;;;;;;;32.17;38.99;100184.56;4978993;28;100371;-79
2021/06/21 07:04:20;;;;;;;;;;;;;;;32.46;38.26;100175.97;4981470;28;98136;-79
2021/06/21 07:06:46;;;;;;;;;;;;;;;32.51;38.07;100178.06;4975223;28;97767;-80
2021/06/21 07:09:13;;;;;;;;;;;;;;;32.48;38.36;100194.91;4995501;28;97283;-81
2021/06/21 07:11:40;;;;;;;;;;;;;;;32.40;38.60;100187.75;5000877;28;99114;-82
2021/06/21 07:14:07;;;;;;;;;;;;;;;33.15;36.96;100179.06;4994933;28;97733;-84
2021/06/21 07:16:38;;;;;;;;;;;;;;;32.86;37.63;100170.50;4996167;28;96783;-85
2021/06/21 07:19:07;;;;;;;;;;;;;;;33.09;37.29;100171.72;4998098;28;97703;-81
2021/06/21 07:21:36;;;;;;;;;;;;;;;33.60;36.13;100184.66;4973647;28;99348;-83
2021/06/21 07:24:02;;;;;;;;;;;;;;;33.69;35.72;100177.00;4982913;28;98386;-81
2021/06/21 07:26:29;;;;;;;;;;;;;;;33.54;35.90;100180.84;4976329;28;98699;-82
2021/06/21 07:28:55;;;;;;;;;;;;;;;33.79;35.75;100185.66;4982923;28;96871;-81
2021/06/21 07:31:22;;;;;;;;;;;;;;;34.31;34.93;100204.53;4993825;28;99345;-80
2021/06/21 07:33:50;;;;;;;;;;;;;;;34.07;35.32;100208.03;4987931;28;97683;-81
2021/06/21 07:36:17;;;;;;;;;;;;;;;34.33;34.42;100213.38;4993225;28;97020;-82
2021/06/21 07:38:43;;;;;;;;;;;;;;;33.85;34.82;100214.91;4985777;28;96904;-81
2021/06/21 07:41:10;;;;;;;;;;;;;;;33.97;35.29;100210.41;4984508;28;97080;-81
2021/06/21 07:43:37;;;;;;;;;;;;;;;34.17;34.87;100210.31;4990676;28;101721;-80
2021/06/21 07:46:04;;;;;;;;;;;;;;;33.97;35.23;100207.69;4986919;28;97299;-81
2021/06/21 07:48:31;;;;;;;;;;;;;;;33.90;35.12;100206.88;4995583;28;96814;-82
2021/06/21 07:51:02;;;;;;;;;;;;;;;34.11;34.94;100209.28;4988340;28;97048;-82
2021/06/21 07:53:29;;;;;;;;;;;;;;;34.05;35.14;100210.16;4990181;28;100322;-80
2021/06/21 07:58:37;;;;;;;;;;;;;;;33.94;35.69;100202.63;4969496;28;97288;-81
2021/06/21 08:04:14;;;;;;;;;;;;;;;33.96;35.87;100201.34;4948315;28;98443;-81
2021/06/21 08:06:45;;;;;;;;;;;;;;;33.79;35.97;100207.56;4985852;28;97910;-81
2021/06/21 08:09:12;;;;;;;;;;;;;;;33.57;36.14;100205.09;4980594;28;96894;-81
2021/06/21 08:11:38;;;;;;;;;;;;;;;33.74;35.53;100207.38;4986265;28;97802;-81
2021/06/21 08:14:05;;;;;;;;;;;;;;;33.69;35.07;100205.25;4980585;28;101719;-81
2021/06/21 08:16:32;;;;;;;;;;;;;;;33.47;34.95;100206.63;4989975;28;97143;-83
2021/06/21 08:18:59;;;;;;;;;;;;;;;33.45;34.62;100215.03;4986974;28;97368;-82
2021/06/21 08:21:28;;;;;;;;;;;;;;;32.87;35.36;100213.25;4993086;28;98029;-81
2021/06/21 08:23:58;;;;;;;;;;;;;;;32.91;35.72;100217.22;4977095;28;100136;-83
2021/06/21 08:26:24;;;;;;;;;;;;;;;33.47;34.38;100218.41;4979840;28;97610;-81
2021/06/21 08:28:50;;;;;;;;;;;;;;;33.77;32.74;100213.25;4983602;28;96902;-83
2021/06/21 08:31:20;;;;;;;;;;;;;;;33.21;33.67;100219.31;4977517;28;99704;-79
2021/06/21 08:33:53;;;;;;;;;;;;;;;32.95;34.12;100207.56;4981042;28;98756;-82
2021/06/21 08:36:19;;;;;;;;;;;;;;;33.96;33.02;100211.47;4973651;28;97353;-81
2021/06/21 08:38:48;;;;;;;;;;;;;;;33.57;33.95;100218.78;4970683;28;98741;-80
2021/06/21 08:41:17;;;;;;;;;;;;;;;33.60;33.60;100218.38;4979910;28;103790;-77
2021/06/21 08:43:45;;;;;;;;;;;;;;;33.75;33.47;100230.97;4979734;28;100427;-81
2021/06/21 08:49:12;;;;;;;;;;;;;;;33.79;33.81;100238.56;4967481;28;97093;-82
2021/06/21 08:54:31;;;;;;;;;;;;;;;33.39;32.76;100224.13;4977450;28;98534;-81
2021/06/21 08:57:01;;;;;;;;;;;;;;;33.19;32.25;100223.31;4979894;28;98942;-82
2021/06/21 08:59:27;;;;;;;;;;;;;;;33.60;31.68;100229.31;4992590;28;96749;-82
2021/06/21 09:01:54;;;;;;;;;;;;;;;33.05;32.50;100229.84;4982926;28;96960;-82
2021/06/21 09:04:25;;;;;;;;;;;;;;;33.28;32.56;100234.91;4982694;28;98273;-84
2021/06/21 09:06:54;;;;;;;;;;;;;;;33.13;32.37;100235.94;4988002;28;97232;-82
2021/06/21 09:09:20;;;;;;;;;;;;;;;32.55;33.42;100245.81;4982860;28;96924;-83
2021/06/21 09:11:55;;;;;;;;;;;;;;;32.81;33.40;100240.41;4972727;28;98957;-82
2021/06/21 09:14:30;;;;;;;;;;;;;;;32.32;34.53;100237.16;4973962;28;120270;-83
2021/06/21 09:17:01;;;;;;;;;;;;;;;32.73;34.42;100243.34;4997980;28;96904;-82
2021/06/21 09:22:21;;;;;;;;;;;;;;;33.46;33.15;100246.00;5003500;28;98787;-82
2021/06/21 09:24:49;;;;;;;;;;;;;;;33.17;33.17;100250.03;4995479;28;96875;-82
2021/06/21 09:27:18;;;;;;;;;;;;;;;33.26;32.93;100240.59;4995814;28;96933;-82
2021/06/21 09:30:02;;;;;;;;;;;;;;;33.35;33.09;100239.28;4994889;28;97728;-81
2021/06/21 09:32:53;;;;;;;;;;;;;;;33.32;33.25;100242.47;4989718;28;98212;-82
2021/06/21 09:35:40;;;;;;;;;;;;;;;33.46;32.73;100235.91;4996563;28;99665;-80
2021/06/21 09:38:12;;;;;;;;;;;;;;;33.83;32.51;100248.00;4997874;28;96788;-81
2021/06/21 09:43:23;;;;;;;;;;;;;;;33.83;32.41;100239.78;4999153;28;99768;-86
2021/06/21 09:49:09;;;;;;;;;;;;;;;33.37;33.59;100239.06;4958672;28;96871;-86
2021/06/21 09:51:36;;;;;;;;;;;;;;;33.13;33.14;100232.38;4982272;28;97246;-85
2021/06/21 09:54:08;;;;;;;;;;;;;;;33.45;33.09;100236.94;4989101;28;99386;-86
2021/06/21 09:56:42;;;;;;;;;;;;;;;33.44;33.49;100232.53;4990889;28;98402;-85
2021/06/21 09:59:23;;;;;;;;;;;;;;;33.26;33.87;100237.84;4990157;28;96846;-86
2021/06/21 10:02:03;;;;;;;;;;;;;;;33.27;33.86;100242.28;4996044;28;96944;-86
2021/06/21 10:04:31;;;;;;;;;;;;;;;33.49;33.82;100238.19;4988473;28;99615;-84
2021/06/21 10:07:00;;;;;;;;;;;;;;;33.16;34.14;100240.97;4986612;28;98864;-86
2021/06/21 10:09:27;;;;;;;;;;;;;;;33.75;33.32;100247.41;4987674;28;96879;-84
2021/06/21 10:11:53;;;;;;;;;;;;;;;33.71;33.36;100243.44;4982740;28;96863;-87
2021/06/21 10:14:26;;;;;;;;;;;;;;;33.91;33.40;100249.66;4983193;28;102306;-83
2021/06/21 10:16:53;;;;;;;;;;;;;;;33.60;33.59;100251.25;4991344;28;99127;-84
2021/06/21 10:19:20;;;;;;;;;;;;;;;33.91;33.48;100252.41;4982678;28;96955;-83
2021/06/21 10:21:52;;;;;;;;;;;;;;;33.86;33.55;100246.75;4991555;28;96738;-82
2021/06/21 10:24:19;;;;;;;;;;;;;;;33.71;33.41;100249.75;4978724;28;99311;-83
2021/06/21 10:26:50;;;;;;;;;;;;;;;33.46;34.48;100255.06;4993608;28;98060;-82
2021/06/21 10:29:19;;;;;;;;;;;;;;;33.48;34.09;100247.47;4992051;28;96938;-82
2021/06/21 10:34:26;;;;;;;;;;;;;;;32.77;35.69;100258.28;5003214;28;98783;-81
2021/06/21 10:37:00;;;;;;;;;;;;;;;33.09;35.50;100247.50;5002093;28;97952;-83
2021/06/21 10:39:27;;;;;;;;;;;;;;;33.20;34.96;100257.88;5005976;28;96543;-82
2021/06/21 10:42:18;;;;;;;;;;;;;;;33.21;35.07;100254.06;5007322;28;96037;-81
2021/06/21 10:44:46;;;;;;;;;;;;;;;33.47;34.34;100250.44;5003157;28;97877;-82
2021/06/21 10:47:30;;;;;;;;;;;;;;;33.97;33.85;100251.53;5005002;28;99746;-83
2021/06/21 10:49:58;;;;;;;;;;;;;;;33.93;33.77;100251.13;5002628;28;96693;-82
2021/06/21 10:52:47;;;;;;;;;;;;;;;34.35;33.08;100244.16;4974572;28;96917;-82
2021/06/21 10:55:34;;;;;;;;;;;;;;;33.74;33.98;100248.50;4989191;28;98875;-82
2021/06/21 10:58:03;;;;;;;;;;;;;;;33.64;34.15;100243.41;5000073;28;97044;-83
2021/06/21 11:00:42;;;;;;;;;;;;;;;33.91;33.55;100246.91;4999457;28;96755;-84
2021/06/21 11:03:29;;;;;;;;;;;;;;;33.67;33.60;100243.00;5007698;28;96057;-85
2021/06/21 11:05:57;;;;;;;;;;;;;;;33.32;34.31;100236.16;5009876;28;97704;-88
2021/06/21 11:08:25;;;;;;;;;;;;;;;33.55;34.42;100237.31;5007117;28;96323;-88
2021/06/21 11:13:43;;;;;;;;;;;;;;;33.32;34.40;100228.78;5007498;28;96823;-85
2021/06/21 11:16:25;;;;;;;;;;;;;;;33.28;34.83;100232.16;4998749;28;96957;-85
2021/06/21 11:19:06;;;;;;;;;;;;;;;33.44;34.39;100227.03;4988707;28;99411;-83
2021/06/21 11:21:45;;;;;;;;;;;;;;;33.67;34.72;100236.69;4990603;28;97712;-84
2021/06/21 11:24:16;;;;;;;;;;;;;;;33.20;34.69;100227.75;5003158;28;97005;-84
2021/06/21 11:27:05;;;;;;;;;;;;;;;33.45;34.60;100231.47;4995470;28;99416;-84
2021/06/21 11:29:35;;;;;;;;;;;;;;;33.57;34.43;100235.22;4986682;28;98308;-87
2021/06/21 11:32:02;;;;;;;;;;;;;;;33.99;33.74;100235.72;4991403;28;97104;-86
2021/06/21 11:34:45;;;;;;;;;;;;;;;34.35;32.81;100233.19;4999060;28;97742;-87
2021/06/21 11:37:31;;;;;;;;;;;;;;;34.27;33.21;100227.97;4985551;28;99489;-83
2021/06/21 11:40:18;;;;;;;;;;;;;;;33.85;33.69;100226.72;5002296;28;97698;-85
2021/06/21 11:43:06;;;;;;;;;;;;;;;33.79;33.53;100227.59;5004227;28;96958;-87
2021/06/21 11:45:52;;;;;;;;;;;;;;;34.32;32.94;100217.19;5010181;28;96152;-86
2021/06/21 11:48:27;;;;;;;;;;;;;;;33.82;33.26;100216.19;4988325;28;97770;-86
2021/06/21 11:51:00;;;;;;;;;;;;;;;33.55;33.50;100198.13;5003207;28;98426;-85
2021/06/21 11:53:30;;;;;;;;;;;;;;;34.01;32.82;100203.41;4991099;28;96907;-83
2021/06/21 11:55:59;;;;;;;;;;;;;;;34.07;32.67;100212.69;4987179;28;96923;-82
2021/06/21 12:01:17;;;;;;;;;;;;;;;34.31;33.01;100200.97;4976718;28;97530;-82
2021/06/21 12:03:45;;;;;;;;;;;;;;;34.46;32.12;100206.13;4986777;28;96853;-82
2021/06/21 12:06:13;;;;;;;;;;;;;;;34.87;31.34;100200.94;4989359;28;98736;-85
2021/06/21 12:08:47;;;;;;;;;;;;;;;34.34;31.88;100204.09;4987850;28;99501;-84
2021/06/21 12:11:14;;;;;;;;;;;;;;;34.35;31.81;100211.25;4991125;28;98781;-83
2021/06/21 12:13:43;;;;;;;;;;;;;;;34.70;31.50;100205.28;4997571;28;97255;-83
2021/06/21 12:16:10;;;;;;;;;;;;;;;34.96;30.82;100198.75;5000891;28;97405;-85
2021/06/21 12:18:37;;;;;;;;;;;;;;;35.07;30.82;100209.81;4992214;28;102352;-84
2021/06/21 12:21:05;;;;;;;;;;;;;;;34.49;31.00;100209.25;4993240;28;98948;-82
2021/06/21 12:23:32;;;;;;;;;;;;;;;34.51;31.76;100209.03;4990354;28;96778;-84
2021/06/21 12:26:00;;;;;;;;;;;;;;;34.28;32.53;100199.50;4987374;28;96804;-84
2021/06/21 12:28:28;;;;;;;;;;;;;;;34.39;32.00;100192.47;4990630;28;100760;-83
2021/06/21 12:31:05;;;;;;;;;;;;;;;;;;;;;
2021/06/21 12:33:34;;;;;;;;;;;;;;;34.87;31.16;100184.47;4990215;28;117769;-83
2021/06/21 12:36:08;;;;;;;;;;;;;;;34.86;31.35;100185.53;4987060;28;97340;-82
2021/06/21 12:38:35;;;;;;;;;;;;;;;35.07;31.23;100187.00;4987330;28;101056;-82
2021/06/21 12:41:10;;;;;;;;;;;;;;;34.99;31.14;100190.88;4988229;28;98914;-84
2021/06/21 12:44:00;;;;;;;;;;;;;;;35.44;30.03;100182.41;4997808;28;96845;-81
2021/06/21 12:46:28;;;;;;;;;;;;;;;35.37;30.86;100182.50;4981470;28;97193;-82
2021/06/21 12:48:55;;;;;;;;;;;;;;;35.41;30.66;100191.09;4996230;28;97878;-83
2021/06/21 12:51:27;;;;;;;;;;;;;;;35.83;29.74;100183.84;4995957;28;99950;-82
2021/06/21 12:53:56;;;;;;;;;;;;;;;35.63;29.79;100170.34;4993306;28;96819;-83
2021/06/21 12:56:23;;;;;;;;;;;;;;;35.80;29.56;100171.41;4989828;28;96871;-83
2021/06/21 12:59:08;;;;;;;;;;;;;;;;;;;;;
2021/06/21 13:01:35;;;;;;;;;;;;;;;35.85;29.02;100171.53;4983694;28;127534;-82
2021/06/21 13:04:14;;;;;;;;;;;;;;;36.10;28.80;100165.91;4983940;28;96833;-84
2021/06/21 13:06:43;;;;;;;;;;;;;;;35.57;29.45;100165.78;4986378;28;96956;-83
2021/06/21 13:09:11;;;;;;;;;;;;;;;35.75;28.94;100181.41;4982810;28;101231;-83
2021/06/21 13:11:55;;;;;;;;;;;;;;;35.74;28.38;100174.22;4987358;28;100950;-84
2021/06/21 13:14:23;;;;;;;;;;;;;;;36.15;27.75;100173.44;4993995;28;97361;-85
2021/06/21 13:17:04;;;;;;;;;;;;;;;35.98;28.41;100176.00;5003036;28;96912;-83